Terminal Aerodrome Forecast
Issued by NWS

Home | Current Version | Previous Version | Text Only | Print | Product List | Glossary On
Versions: 1 2 3 4 5 6 7 8 9 10 11 12 13
000
FTAK31 PAJN 070500
TAFASI
TAF
PASI 070537Z 0706/0806 32008KT P6SM FEW005 SCT150
     FM070900 VRB03KT 4SM BR BKN004
     FM071400 VRB03KT 2SM BR OVC003
     FM071800 29005KT P6SM VCFG SCT005 SCT200
     FM072100 30010KT P6SM SCT150=

USA.gov is the U.S. government's official web portal to all federal, state and local government web resources and services.